Aviation Digital Data Service (ADDS)

Output produced by METARs form (2109 UTC 21 September 2021)
found at http://www.aviationweather.gov/metar/data/
 
TAF MMUN 211706Z 2118/2224 08010KT P6SM BKN015 TX32/2118Z TN26/2211Z 
     FM220200 05008KT 6SM -RA BKN015 
     TEMPO 2205/2209 4SM TSRA BKN015CB 
     FM221400 07008KT P6SM SCT015 BKN120 BKN300 
     BECMG 2220/2221 BKN015CB 
     TEMPO 2221/2224 4SM TSRA